Time;durP1;ratioP1;P1;durP2;ratioP2;P2;SDS_P1;SDS_P2;PMS_P1;PMS_P2;Temp;Humidity;BMP_temperature;BMP_pressure;BME280_temperature;BME280_humidity;BME280_pressure;Samples;Min_cycle;Max_cycle;Signal;HPM_P1;HPM_P2
2022/07/31 04:02:27;;;;;;;6.57;5.13;;;17.90;99.90;;;;;;5134511;23;20618;-73
2022/07/31 04:04:54;;;;;;;6.03;5.03;;;17.90;99.90;;;;;;5007631;28;20458;-73
2022/07/31 04:07:21;;;;;;;13.80;5.97;;;17.90;99.90;;;;;;5007360;28;20466;-73
2022/07/31 04:09:48;;;;;;;5.10;4.70;;;17.80;99.90;;;;;;5007324;28;20459;-73
2022/07/31 04:12:14;;;;;;;5.10;4.70;;;17.90;99.90;;;;;;5007639;28;20475;-72
2022/07/31 04:14:41;;;;;;;7.03;5.60;;;17.90;99.90;;;;;;5006485;28;20494;-73
2022/07/31 04:17:08;;;;;;;7.60;5.80;;;17.90;99.90;;;;;;5007272;28;20954;-73
2022/07/31 04:19:38;;;;;;;6.13;5.53;;;17.90;99.90;;;;;;5005735;28;20466;-73
2022/07/31 04:22:05;;;;;;;6.00;5.33;;;17.80;99.90;;;;;;5007715;28;20555;-73
2022/07/31 04:24:32;;;;;;;6.70;6.00;;;17.80;99.90;;;;;;5006781;28;20451;-73
2022/07/31 04:26:59;;;;;;;8.40;5.30;;;17.80;99.90;;;;;;5007138;28;20981;-73
2022/07/31 04:29:27;;;;;;;5.47;4.97;;;17.80;99.90;;;;;;5007157;28;20951;-73
2022/07/31 04:31:54;;;;;;;8.07;5.80;;;17.80;99.90;;;;;;5006824;28;20987;-73
2022/07/31 04:34:21;;;;;;;5.87;5.07;;;17.80;99.90;;;;;;5006497;28;20454;-73
2022/07/31 04:36:49;;;;;;;11.70;5.30;;;17.70;99.90;;;;;;5007758;28;20458;-73
2022/07/31 04:39:17;;;;;;;5.23;4.83;;;17.70;99.90;;;;;;5007078;28;20459;-73
2022/07/31 04:41:44;;;;;;;12.40;5.27;;;17.70;99.90;;;;;;5007266;28;20604;-73
2022/07/31 04:44:11;;;;;;;5.90;5.40;;;17.60;99.90;;;;;;5006495;28;20999;-73
2022/07/31 04:46:38;;;;;;;5.40;4.90;;;17.70;99.90;;;;;;5006846;28;20457;-73
2022/07/31 04:49:04;;;;;;;5.30;4.80;;;17.70;99.90;;;;;;5006645;28;21128;-73
2022/07/31 04:51:31;;;;;;;5.37;4.43;;;17.70;99.90;;;;;;5006724;28;20474;-73
2022/07/31 04:53:59;;;;;;;5.97;5.37;;;17.70;99.90;;;;;;5006707;28;20786;-73
2022/07/31 04:56:41;;;;;;;4.90;4.50;;;17.70;99.90;;;;;;5006795;28;20497;-74
2022/07/31 04:59:09;;;;;;;7.37;5.23;;;17.70;99.90;;;;;;5007206;28;20450;-74
2022/07/31 05:01:36;;;;;;;6.80;5.40;;;17.70;99.90;;;;;;5006516;28;20493;-74
2022/07/31 05:04:05;;;;;;;10.07;5.37;;;17.70;99.90;;;;;;5005940;28;20746;-74
2022/07/31 05:06:36;;;;;;;5.63;5.13;;;17.70;99.90;;;;;;5007118;28;20459;-73
2022/07/31 05:09:06;;;;;;;5.63;5.20;;;17.80;99.90;;;;;;5007125;28;20467;-74
2022/07/31 05:11:33;;;;;;;6.33;5.67;;;17.80;99.90;;;;;;5006943;28;20540;-74
2022/07/31 05:14:02;;;;;;;6.33;5.50;;;17.80;99.90;;;;;;5006445;28;20454;-74
2022/07/31 05:16:30;;;;;;;6.10;5.60;;;17.80;99.90;;;;;;5006422;28;20497;-65
2022/07/31 05:18:57;;;;;;;6.43;5.70;;;17.70;99.90;;;;;;5005736;28;20462;-65
2022/07/31 05:21:25;;;;;;;5.80;5.20;;;17.70;99.90;;;;;;5005347;28;20478;-65
2022/07/31 05:23:53;;;;;;;5.30;4.80;;;17.70;99.90;;;;;;5005559;28;20558;-65
2022/07/31 05:26:21;;;;;;;6.10;5.03;;;17.80;99.90;;;;;;5004833;28;20447;-65
2022/07/31 05:28:49;;;;;;;5.40;4.90;;;17.80;99.90;;;;;;5005554;28;20462;-64
2022/07/31 05:31:17;;;;;;;5.43;4.93;;;17.80;99.90;;;;;;5008712;28;21006;-65
2022/07/31 05:33:44;;;;;;;6.23;5.30;;;17.80;99.90;;;;;;5009841;28;20477;-65
2022/07/31 05:36:12;;;;;;;6.60;4.90;;;17.90;99.90;;;;;;5008057;28;21320;-65
2022/07/31 05:38:39;;;;;;;5.43;4.90;;;17.90;99.90;;;;;;5009263;28;20466;-65
2022/07/31 05:41:06;;;;;;;7.73;5.23;;;18.00;99.90;;;;;;5009589;28;20482;-74
2022/07/31 05:43:34;;;;;;;5.47;5.00;;;18.00;99.90;;;;;;5009130;28;20446;-74
2022/07/31 05:46:01;;;;;;;6.40;5.60;;;18.00;99.90;;;;;;5008423;28;20963;-74
2022/07/31 05:48:28;;;;;;;7.27;6.07;;;18.10;99.90;;;;;;5009198;28;20454;-74
2022/07/31 05:50:55;;;;;;;7.07;5.40;;;18.10;99.90;;;;;;5009349;28;20483;-64
2022/07/31 05:53:22;;;;;;;5.43;4.93;;;18.10;99.90;;;;;;5009295;28;20558;-65
2022/07/31 05:55:50;;;;;;;6.97;5.90;;;18.10;99.90;;;;;;5008395;28;20837;-64
2022/07/31 05:58:18;;;;;;;6.80;6.10;;;18.20;99.90;;;;;;5009007;28;20463;-65
2022/07/31 06:00:49;;;;;;;5.30;4.90;;;18.30;99.90;;;;;;5008920;28;20581;-65
2022/07/31 06:03:16;;;;;;;6.80;5.40;;;18.20;99.90;;;;;;5008914;28;20888;-64
2022/07/31 06:05:43;;;;;;;5.57;4.90;;;18.30;99.90;;;;;;5008529;28;20454;-64
2022/07/31 06:08:11;;;;;;;5.83;5.23;;;18.30;99.90;;;;;;5009123;28;20508;-65
2022/07/31 06:10:38;;;;;;;6.13;5.53;;;18.40;99.90;;;;;;5008248;28;20482;-64
2022/07/31 06:13:05;;;;;;;6.37;5.10;;;18.40;99.90;;;;;;5008869;28;20463;-64
2022/07/31 06:15:32;;;;;;;6.27;5.20;;;18.40;99.90;;;;;;5007835;28;20486;-65
2022/07/31 06:18:00;;;;;;;5.20;4.70;;;18.50;99.90;;;;;;5007180;28;20462;-74
2022/07/31 06:20:28;;;;;;;8.77;4.83;;;18.50;99.90;;;;;;5007737;28;20533;-73
2022/07/31 06:22:54;;;;;;;5.53;4.77;;;18.50;99.90;;;;;;5007439;28;20871;-73
2022/07/31 06:25:21;;;;;;;5.10;4.60;;;18.60;99.90;;;;;;5006845;28;20466;-74
2022/07/31 06:27:48;;;;;;;6.60;4.80;;;18.60;99.90;;;;;;5007863;28;20458;-74
2022/07/31 06:30:15;;;;;;;4.40;4.00;;;18.70;99.90;;;;;;5006583;28;20451;-74
2022/07/31 06:32:42;;;;;;;5.73;4.73;;;18.70;99.90;;;;;;5007682;28;20553;-74
2022/07/31 06:35:10;;;;;;;6.90;4.57;;;18.80;99.90;;;;;;5006778;28;21014;-74
2022/07/31 06:37:38;;;;;;;5.47;4.43;;;18.80;99.90;;;;;;5007349;28;20470;-74
2022/07/31 06:40:06;;;;;;;5.10;3.90;;;18.80;99.90;;;;;;5007342;28;20455;-74
2022/07/31 06:42:32;;;;;;;8.30;4.57;;;18.80;99.90;;;;;;5005681;28;20846;-69
2022/07/31 06:44:59;;;;;;;4.87;4.40;;;18.90;99.90;;;;;;5006525;28;20552;-65
2022/07/31 06:47:26;;;;;;;4.63;4.20;;;18.90;99.90;;;;;;5007330;28;21237;-66
2022/07/31 06:49:57;;;;;;;5.37;4.73;;;19.00;99.90;;;;;;5006810;28;20499;-66
2022/07/31 06:52:26;;;;;;;6.67;5.00;;;19.10;99.90;;;;;;5007021;28;20525;-65
2022/07/31 06:54:52;;;;;;;7.43;5.27;;;19.10;99.90;;;;;;5006930;28;21191;-65
2022/07/31 06:57:19;;;;;;;8.10;6.57;;;19.10;99.90;;;;;;5007862;28;20463;-65
2022/07/31 06:59:46;;;;;;;7.50;5.50;;;19.20;99.90;;;;;;5007986;28;20468;-65
2022/07/31 07:02:13;;;;;;;10.17;6.00;;;19.30;99.90;;;;;;5007446;28;20501;-65
2022/07/31 07:04:40;;;;;;;8.10;5.40;;;19.30;99.90;;;;;;5005919;28;20474;-65
2022/07/31 07:07:07;;;;;;;7.13;6.07;;;19.40;99.90;;;;;;5007871;28;20465;-65
2022/07/31 07:09:35;;;;;;;7.30;6.10;;;19.40;99.90;;;;;;5007594;28;20959;-65
2022/07/31 07:12:02;;;;;;;6.63;5.87;;;19.50;99.90;;;;;;5007415;28;20471;-65
2022/07/31 07:14:28;;;;;;;7.13;6.43;;;19.50;99.90;;;;;;5006764;28;20466;-75
2022/07/31 07:16:55;;;;;;;6.97;5.30;;;19.60;99.90;;;;;;5007724;28;20491;-75
2022/07/31 07:19:34;;;;;;;5.10;4.27;;;19.60;99.90;;;;;;5006942;28;20947;-75
2022/07/31 07:22:01;;;;;;;6.00;3.97;;;19.70;99.90;;;;;;5001338;28;20506;-75
2022/07/31 07:24:28;;;;;;;5.53;3.93;;;19.70;99.90;;;;;;4995589;28;20538;-75
2022/07/31 07:26:56;;;;;;;3.90;3.60;;;19.80;99.90;;;;;;4998178;28;20533;-75
2022/07/31 07:29:23;;;;;;;4.63;4.23;;;19.80;99.90;;;;;;4987677;28;20470;-75
2022/07/31 07:31:51;;;;;;;9.63;4.13;;;19.90;99.90;;;;;;4987326;28;20483;-75
2022/07/31 07:34:18;;;;;;;5.03;4.20;;;19.90;99.90;;;;;;4986999;28;20470;-66
2022/07/31 07:36:44;;;;;;;4.17;3.77;;;20.00;99.90;;;;;;4987430;28;20505;-66
2022/07/31 07:39:11;;;;;;;4.10;3.70;;;20.10;99.90;;;;;;4987932;28;20468;-66
2022/07/31 07:41:38;;;;;;;5.90;4.20;;;20.10;99.90;;;;;;4987598;28;20825;-66
2022/07/31 07:44:08;;;;;;;5.03;3.90;;;20.20;99.90;;;;;;4986999;28;20557;-66
2022/07/31 07:46:35;;;;;;;4.93;3.70;;;20.30;99.90;;;;;;4987450;28;20907;-65
2022/07/31 07:49:03;;;;;;;5.00;3.73;;;20.40;99.90;;;;;;4987956;28;20460;-66
2022/07/31 07:51:30;;;;;;;4.60;3.80;;;20.40;99.90;;;;;;4987400;28;20490;-66
2022/07/31 07:53:56;;;;;;;4.50;4.10;;;20.50;99.90;;;;;;4986905;28;20497;-65
2022/07/31 07:56:23;;;;;;;5.63;3.73;;;20.60;99.90;;;;;;4987204;28;20491;-66
2022/07/31 07:58:50;;;;;;;4.27;3.87;;;20.60;99.90;;;;;;4987664;28;20542;-66
2022/07/31 08:01:20;;;;;;;4.47;3.40;;;20.70;99.90;;;;;;4987225;28;20563;-66
2022/07/31 08:03:46;;;;;;;3.67;3.37;;;20.80;99.90;;;;;;4987083;28;20466;-66
2022/07/31 08:06:13;;;;;;;7.27;3.40;;;20.80;99.90;;;;;;4986684;28;20459;-66
2022/07/31 08:08:40;;;;;;;4.93;3.63;;;20.90;99.90;;;;;;4986846;28;20464;-66
2022/07/31 08:11:07;;;;;;;4.00;3.60;;;20.90;99.90;;;;;;4987232;28;20484;-66
2022/07/31 08:13:34;;;;;;;4.43;3.53;;;20.90;99.90;;;;;;4986778;28;20451;-66
2022/07/31 08:16:01;;;;;;;5.93;3.57;;;21.00;99.90;;;;;;4987120;28;20865;-66
2022/07/31 08:18:30;;;;;;;5.00;3.50;;;21.00;99.90;;;;;;4987552;28;20469;-66
2022/07/31 08:20:57;;;;;;;4.33;3.27;;;21.00;99.90;;;;;;4987306;28;20487;-65
2022/07/31 08:23:24;;;;;;;4.37;3.97;;;21.10;99.90;;;;;;4987190;28;20849;-65
2022/07/31 08:25:51;;;;;;;4.63;3.70;;;21.20;99.90;;;;;;4986352;28;20463;-66
2022/07/31 08:28:21;;;;;;;6.10;3.80;;;21.20;99.90;;;;;;4987030;28;20550;-66
2022/07/31 08:30:47;;;;;;;3.63;3.33;;;21.30;99.90;;;;;;4987632;28;20499;-66
2022/07/31 08:33:14;;;;;;;4.43;3.83;;;21.30;99.90;;;;;;4987603;28;20459;-67
2022/07/31 08:35:42;;;;;;;4.00;3.47;;;21.30;99.90;;;;;;4986081;28;20610;-67
2022/07/31 08:38:11;;;;;;;5.17;3.40;;;21.40;99.90;;;;;;4987213;28;20463;-66
2022/07/31 08:40:38;;;;;;;5.17;3.53;;;21.50;99.90;;;;;;4986971;28;20479;-66
2022/07/31 08:43:05;;;;;;;7.10;4.43;;;21.50;99.90;;;;;;4987136;28;20555;-66
2022/07/31 08:45:33;;;;;;;5.70;3.63;;;21.60;99.90;;;;;;4985701;28;20462;-66
2022/07/31 08:48:01;;;;;;;4.60;3.37;;;21.60;99.90;;;;;;4985670;28;20464;-66
2022/07/31 08:50:29;;;;;;;3.80;2.90;;;21.70;99.90;;;;;;4985361;28;20463;-66
2022/07/31 08:52:59;;;;;;;3.93;2.97;;;21.80;99.90;;;;;;4986523;28;20467;-66
2022/07/31 08:55:27;;;;;;;5.93;3.87;;;21.90;99.90;;;;;;4986114;28;20444;-66
2022/07/31 08:57:54;;;;;;;5.30;3.30;;;21.90;99.90;;;;;;4986439;28;20499;-67
2022/07/31 09:00:21;;;;;;;3.30;2.93;;;22.00;99.90;;;;;;4986663;28;20459;-67
2022/07/31 09:02:48;;;;;;;3.50;2.90;;;22.10;99.90;;;;;;4986439;28;20882;-66
2022/07/31 09:05:16;;;;;;;4.53;2.70;;;22.20;99.90;;;;;;4985587;28;20470;-67
2022/07/31 09:07:43;;;;;;;4.50;3.43;;;22.30;99.90;;;;;;4986466;28;20554;-76
2022/07/31 09:10:22;;;;;;;5.83;3.30;;;22.30;99.90;;;;;;4986751;28;21120;-77
2022/07/31 09:12:49;;;;;;;7.30;3.40;;;22.40;99.90;;;;;;4986279;28;20447;-77
2022/07/31 09:15:24;;;;;;;3.40;2.73;;;22.40;99.90;;;;;;4985300;28;20828;-77
2022/07/31 09:17:52;;;;;;;5.60;2.70;;;22.50;99.90;;;;;;4986543;28;20505;-76
2022/07/31 09:20:21;;;;;;;3.37;2.80;;;22.60;99.90;;;;;;4986184;28;20460;-76
2022/07/31 09:22:52;;;;;;;3.83;2.90;;;22.70;99.90;;;;;;4986430;28;20471;-77
2022/07/31 09:25:21;;;;;;;4.40;3.40;;;22.80;99.90;;;;;;4985884;28;20514;-77
2022/07/31 09:27:50;;;;;;;5.70;3.00;;;22.80;99.90;;;;;;4986084;28;20562;-76
2022/07/31 09:30:17;;;;;;;3.00;2.63;;;22.90;99.90;;;;;;4985868;28;20469;-76
2022/07/31 09:32:44;;;;;;;4.63;2.50;;;22.90;99.90;;;;;;4985559;28;20463;-76
2022/07/31 09:35:14;;;;;;;3.20;2.90;;;23.00;99.90;;;;;;4985385;28;20470;-76
2022/07/31 09:37:41;;;;;;;6.23;2.67;;;23.10;99.90;;;;;;4985481;28;21025;-75
2022/07/31 09:40:09;;;;;;;3.77;2.40;;;23.30;99.90;;;;;;4986095;28;20459;-75
2022/07/31 09:42:41;;;;;;;3.20;2.47;;;23.40;99.90;;;;;;4985420;28;20475;-75
2022/07/31 09:45:19;;;;;;;6.20;2.87;;;23.60;99.90;;;;;;4985181;28;20863;-75
2022/07/31 09:47:46;;;;;;;3.53;2.30;;;23.70;99.90;;;;;;4986056;28;20801;-76
2022/07/31 09:50:13;;;;;;;5.40;2.70;;;23.70;99.90;;;;;;4985949;28;20460;-76
2022/07/31 09:52:40;;;;;;;2.90;2.03;;;23.80;99.90;;;;;;4985578;28;20463;-76
2022/07/31 09:55:09;;;;;;;2.37;2.10;;;23.90;99.90;;;;;;4985242;28;20473;-75
2022/07/31 09:57:40;;;;;;;2.23;2.03;;;24.10;99.90;;;;;;4985988;28;20495;-76
2022/07/31 10:00:09;;;;;;;3.20;2.37;;;24.20;99.90;;;;;;4985842;28;20546;-76
2022/07/31 10:02:38;;;;;;;2.43;2.17;;;24.30;99.90;;;;;;4985107;28;21011;-76
2022/07/31 10:05:06;;;;;;;4.00;2.93;;;24.40;99.90;;;;;;4985207;28;20456;-75
2022/07/31 10:07:35;;;;;;;3.70;2.07;;;24.60;99.90;;;;;;4985574;28;20959;-76
2022/07/31 10:10:03;;;;;;;3.80;2.40;;;24.70;99.90;;;;;;4986024;28;20471;-76
2022/07/31 10:12:33;;;;;;;2.20;2.00;;;24.80;99.90;;;;;;4985320;28;20976;-76
2022/07/31 10:15:05;;;;;;;5.40;2.40;;;24.80;99.90;;;;;;4985132;28;20462;-76
2022/07/31 10:17:35;;;;;;;2.90;1.83;;;24.90;99.90;;;;;;4989201;28;20518;-76
2022/07/31 10:20:05;;;;;;;2.30;2.00;;;25.00;99.90;;;;;;4989457;28;20469;-76
2022/07/31 10:22:38;;;;;;;4.30;2.13;;;25.10;99.90;;;;;;4987780;28;20483;-76
2022/07/31 10:25:11;;;;;;;2.50;2.30;;;25.20;99.90;;;;;;4988211;28;20450;-76
2022/07/31 10:27:38;;;;;;;3.67;2.10;;;25.20;99.90;;;;;;4988937;28;20807;-76
2022/07/31 10:30:09;;;;;;;3.50;2.27;;;25.20;99.90;;;;;;4988640;28;20971;-76
2022/07/31 10:32:36;;;;;;;3.67;1.90;;;25.30;99.90;;;;;;4988748;28;20523;-76
2022/07/31 10:35:05;;;;;;;4.07;2.50;;;25.40;99.90;;;;;;4988153;28;20488;-76
2022/07/31 10:37:36;;;;;;;3.40;2.10;;;25.50;99.90;;;;;;4988405;28;20610;-76
2022/07/31 10:40:12;;;;;;;2.57;2.00;;;25.60;99.90;;;;;;4988890;28;20444;-76
2022/07/31 10:42:45;;;;;;;3.30;2.30;;;25.70;99.90;;;;;;4989152;28;20458;-76
2022/07/31 10:45:15;;;;;;;6.57;2.10;;;25.80;99.90;;;;;;4988154;28;20448;-76
2022/07/31 10:47:53;;;;;;;3.27;1.97;;;25.90;99.90;;;;;;4988330;28;20464;-77
2022/07/31 10:50:21;;;;;;;5.13;2.30;;;26.00;99.90;;;;;;5002846;28;20455;-77
2022/07/31 10:52:48;;;;;;;3.20;2.00;;;26.10;99.90;;;;;;4997848;28;20455;-77
2022/07/31 10:55:17;;;;;;;2.67;2.00;;;26.20;99.90;;;;;;4992782;28;20879;-77
2022/07/31 10:57:44;;;;;;;2.97;2.03;;;26.20;99.90;;;;;;4988409;28;20491;-77
2022/07/31 11:00:16;;;;;;;2.40;2.03;;;26.40;99.90;;;;;;4988166;28;20464;-77
2022/07/31 11:02:43;;;;;;;2.70;2.03;;;26.40;99.90;;;;;;4988427;28;20448;-77
2022/07/31 11:05:13;;;;;;;2.57;2.10;;;26.50;99.90;;;;;;4987792;28;20458;-76
2022/07/31 11:07:40;;;;;;;4.17;2.10;;;26.60;99.90;;;;;;4988445;28;20451;-77
2022/07/31 11:10:16;;;;;;;4.30;2.00;;;26.70;99.90;;;;;;4988185;28;20456;-77
2022/07/31 11:12:43;;;;;;;5.33;2.00;;;26.80;99.90;;;;;;4987556;28;20456;-77
2022/07/31 11:15:23;;;;;;;2.43;1.70;;;26.90;99.90;;;;;;4987502;28;20451;-77
2022/07/31 11:17:50;;;;;;;3.33;2.20;;;26.90;99.90;;;;;;4988202;28;20510;-77
2022/07/31 11:20:25;;;;;;;2.47;1.63;;;27.00;99.90;;;;;;4987965;28;20466;-78
2022/07/31 11:22:57;;;;;;;3.90;2.60;;;27.10;99.90;;;;;;4988257;28;20443;-77
2022/07/31 11:25:24;;;;;;;3.10;2.00;;;27.20;99.90;;;;;;4987139;28;21007;-77
2022/07/31 11:27:51;;;;;;;2.70;1.90;;;27.30;99.90;;;;;;4987603;28;20459;-76
2022/07/31 11:30:18;;;;;;;5.97;2.10;;;27.30;99.90;;;;;;4987854;28;20463;-76
2022/07/31 11:32:50;;;;;;;4.43;1.90;;;27.30;99.90;;;;;;4986666;28;20470;-76
2022/07/31 11:35:29;;;;;;;5.03;2.37;;;27.40;99.90;;;;;;4986085;28;20455;-76
2022/07/31 11:37:56;;;;;;;2.70;2.20;;;27.50;99.90;;;;;;4986661;28;20475;-76
2022/07/31 11:40:23;;;;;;;5.63;2.13;;;27.50;99.90;;;;;;4986848;28;20472;-77
2022/07/31 11:42:50;;;;;;;2.70;2.00;;;27.60;99.90;;;;;;4988807;28;21017;-77
2022/07/31 11:45:18;;;;;;;3.00;2.40;;;27.70;99.90;;;;;;4985460;28;20456;-77
2022/07/31 11:47:47;;;;;;;4.33;2.73;;;27.80;99.90;;;;;;4985926;28;20463;-77
2022/07/31 11:50:15;;;;;;;3.10;2.50;;;27.90;99.90;;;;;;4985893;28;21137;-77
2022/07/31 11:52:43;;;;;;;1.80;1.70;;;27.90;99.90;;;;;;4986546;28;20944;-77
2022/07/31 11:55:14;;;;;;;3.97;2.20;;;28.00;99.90;;;;;;4986101;28;20463;-77
2022/07/31 11:57:41;;;;;;;7.97;2.50;;;28.10;99.90;;;;;;4986647;28;20499;-78
2022/07/31 12:00:11;;;;;;;3.13;2.30;;;28.10;99.90;;;;;;4986050;28;20491;-77
2022/07/31 12:02:43;;;;;;;2.30;1.90;;;28.20;99.90;;;;;;4986106;28;20467;-77
2022/07/31 12:05:12;;;;;;;2.70;2.00;;;28.30;99.90;;;;;;4985277;28;20465;-77
2022/07/31 12:07:41;;;;;;;2.73;1.90;;;28.40;99.90;;;;;;4986565;28;20514;-76
2022/07/31 12:10:10;;;;;;;2.43;2.00;;;28.40;99.90;;;;;;4986418;28;20490;-76
2022/07/31 12:12:38;;;;;;;5.33;2.23;;;28.40;99.90;;;;;;4985874;28;20488;-78
2022/07/31 12:15:17;;;;;;;5.30;2.20;;;28.40;99.90;;;;;;4985237;28;20948;-77
2022/07/31 12:17:44;;;;;;;3.90;2.07;;;28.40;99.90;;;;;;4986024;28;20526;-77
2022/07/31 12:20:12;;;;;;;2.60;2.00;;;28.40;99.90;;;;;;4988042;28;20502;-68
2022/07/31 12:22:41;;;;;;;3.20;2.20;;;28.40;99.90;;;;;;4986395;28;20459;-68
2022/07/31 12:25:11;;;;;;;3.30;2.27;;;28.50;99.90;;;;;;4986521;28;20839;-68
2022/07/31 12:27:39;;;;;;;2.83;2.17;;;28.50;99.90;;;;;;4987672;28;20451;-67
2022/07/31 12:30:14;;;;;;;3.70;2.00;;;28.50;99.90;;;;;;4987091;28;20463;-66
2022/07/31 12:32:40;;;;;;;3.30;1.87;;;28.60;99.90;;;;;;4987146;28;21126;-68
2022/07/31 12:35:08;;;;;;;2.37;1.90;;;28.60;99.90;;;;;;4985683;28;20463;-68
2022/07/31 12:37:45;;;;;;;2.90;1.90;;;28.70;99.90;;;;;;4986896;28;20579;-69
2022/07/31 12:40:23;;;;;;;8.20;2.30;;;28.70;99.90;;;;;;4985901;28;20525;-68
2022/07/31 12:42:50;;;;;;;8.13;2.47;;;28.60;99.90;;;;;;4986689;28;20467;-69
2022/07/31 12:45:28;;;;;;;3.60;2.00;;;28.60;99.90;;;;;;4985693;28;20877;-67
2022/07/31 12:47:55;;;;;;;4.70;2.20;;;28.60;99.90;;;;;;4986582;28;20802;-64
2022/07/31 12:50:24;;;;;;;3.03;2.20;;;28.60;99.90;;;;;;4986828;28;20836;-65
2022/07/31 12:52:52;;;;;;;2.60;2.33;;;28.60;99.90;;;;;;4986349;28;20463;-67
2022/07/31 12:55:21;;;;;;;2.60;2.03;;;28.60;99.90;;;;;;4985899;28;20471;-68
2022/07/31 12:57:48;;;;;;;4.53;2.20;;;28.70;99.90;;;;;;4986580;28;20942;-67
2022/07/31 13:00:17;;;;;;;6.40;2.70;;;28.80;99.90;;;;;;4986209;28;20539;-70
2022/07/31 13:02:44;;;;;;;6.23;2.23;;;28.80;99.90;;;;;;4986688;28;20580;-68
2022/07/31 13:05:11;;;;;;;7.90;2.00;;;28.90;99.90;;;;;;4985463;28;20784;-67
2022/07/31 13:07:38;;;;;;;6.70;2.00;;;28.90;99.90;;;;;;4986535;28;20538;-68
2022/07/31 13:10:10;;;;;;;2.27;1.97;;;28.90;99.90;;;;;;4986326;28;20499;-68
2022/07/31 13:12:37;;;;;;;3.23;2.07;;;28.90;99.90;;;;;;4986217;28;20495;-68
2022/07/31 13:15:05;;;;;;;1.97;1.77;;;28.90;99.90;;;;;;4985457;28;20968;-70
2022/07/31 13:17:33;;;;;;;3.77;2.00;;;28.80;99.90;;;;;;4986172;28;20509;-69
2022/07/31 13:20:00;;;;;;;4.80;1.90;;;28.80;99.90;;;;;;4985738;28;20482;-67
2022/07/31 13:22:27;;;;;;;4.03;1.87;;;28.80;99.90;;;;;;4986207;28;20953;-65
2022/07/31 13:24:54;;;;;;;3.53;1.80;;;28.70;99.90;;;;;;4985407;28;20466;-66
2022/07/31 13:27:22;;;;;;;3.83;2.23;;;28.70;99.90;;;;;;4985889;28;20451;-66
2022/07/31 13:29:52;;;;;;;2.83;2.10;;;28.70;99.90;;;;;;4986132;28;20470;-67
2022/07/31 13:32:20;;;;;;;3.80;1.83;;;28.70;99.90;;;;;;4985638;28;20484;-67
2022/07/31 13:34:47;;;;;;;3.40;2.20;;;28.70;99.90;;;;;;4985586;28;20467;-67
2022/07/31 13:37:14;;;;;;;2.90;2.00;;;28.80;99.90;;;;;;4986072;28;20466;-67
2022/07/31 13:39:41;;;;;;;5.43;2.57;;;28.80;99.90;;;;;;4986008;28;20464;-67
2022/07/31 13:42:08;;;;;;;7.80;2.17;;;28.90;99.90;;;;;;4986360;28;20483;-67
2022/07/31 13:44:36;;;;;;;5.67;2.10;;;28.90;99.90;;;;;;4985538;28;20546;-67
2022/07/31 13:47:03;;;;;;;2.70;1.90;;;29.00;99.90;;;;;;4985726;28;20991;-67
2022/07/31 13:49:31;;;;;;;2.03;1.80;;;29.20;99.90;;;;;;4985498;28;20472;-66
2022/07/31 13:51:59;;;;;;;7.10;2.40;;;29.20;99.90;;;;;;4988668;28;20515;-70
2022/07/31 13:54:27;;;;;;;3.30;1.90;;;29.30;99.90;;;;;;4988724;28;20591;-66
2022/07/31 13:56:54;;;;;;;2.92;1.98;;;29.30;99.90;;;;;;4988625;28;20821;-70
2022/07/31 13:59:21;;;;;;;2.90;2.00;;;29.70;99.90;;;;;;4989299;28;20236;-69
2022/07/31 14:01:51;;;;;;;3.13;2.00;;;29.70;99.90;;;;;;4988979;28;20488;-69
2022/07/31 14:04:19;;;;;;;3.87;2.20;;;29.70;99.90;;;;;;4988913;28;20467;-69
2022/07/31 14:06:47;;;;;;;2.20;2.00;;;29.60;99.90;;;;;;4989191;28;20490;-69
2022/07/31 14:09:13;;;;;;;5.93;2.53;;;29.50;99.90;;;;;;4989370;28;20551;-69
2022/07/31 14:11:40;;;;;;;3.73;2.07;;;29.50;99.90;;;;;;4989151;28;20987;-68
2022/07/31 14:14:07;;;;;;;2.80;2.10;;;29.50;99.90;;;;;;4988044;28;20460;-69
2022/07/31 14:16:34;;;;;;;2.43;1.70;;;29.50;99.90;;;;;;4988171;28;20838;-68
2022/07/31 14:19:02;;;;;;;2.27;1.90;;;29.60;99.90;;;;;;4987811;28;20529;-64
2022/07/31 14:21:29;;;;;;;2.13;1.87;;;29.60;99.90;;;;;;4988665;28;20479;-68
2022/07/31 14:23:56;;;;;;;2.63;2.10;;;29.70;99.90;;;;;;4988984;28;20455;-66
2022/07/31 14:26:23;;;;;;;6.80;2.27;;;29.80;99.90;;;;;;4988260;28;20552;-66
2022/07/31 14:28:50;;;;;;;2.87;2.10;;;29.80;99.80;;;;;;4988616;28;20492;-69
2022/07/31 14:31:17;;;;;;;4.33;1.80;;;29.80;99.90;;;;;;4988773;28;20494;-68
2022/07/31 14:33:44;;;;;;;2.43;1.73;;;29.90;99.90;;;;;;4988833;28;20538;-69
2022/07/31 14:36:12;;;;;;;1.90;1.70;;;29.90;98.20;;;;;;4988277;28;20553;-67
2022/07/31 14:38:39;;;;;;;3.53;1.90;;;30.00;99.50;;;;;;4988556;28;20527;-69
2022/07/31 14:41:06;;;;;;;4.90;2.10;;;30.00;99.70;;;;;;4988727;28;20479;-69
2022/07/31 14:43:33;;;;;;;3.17;2.00;;;30.10;99.20;;;;;;4988745;28;20462;-70
2022/07/31 14:46:00;;;;;;;2.60;1.90;;;30.10;99.70;;;;;;4988096;28;20495;-69
2022/07/31 14:48:27;;;;;;;5.80;2.00;;;30.20;98.70;;;;;;4988752;28;20455;-71
2022/07/31 14:50:54;;;;;;;2.90;1.90;;;30.20;98.40;;;;;;4988481;28;20483;-68
2022/07/31 14:53:22;;;;;;;3.77;2.10;;;30.10;98.60;;;;;;4988547;28;20551;-69
2022/07/31 14:55:49;;;;;;;2.10;1.80;;;30.10;98.30;;;;;;4987471;28;20459;-65
2022/07/31 14:58:16;;;;;;;2.97;1.73;;;30.10;97.70;;;;;;4988482;28;20538;-68
2022/07/31 15:00:43;;;;;;;5.93;1.90;;;30.10;98.50;;;;;;4987741;28;20991;-69
2022/07/31 15:03:10;;;;;;;10.93;2.00;;;30.10;98.40;;;;;;4986957;28;20471;-67
2022/07/31 15:05:36;;;;;;;4.40;2.20;;;30.10;98.70;;;;;;4986698;28;20460;-69
2022/07/31 15:08:03;;;;;;;2.80;1.97;;;30.20;98.90;;;;;;4988146;28;20463;-69
2022/07/31 15:10:32;;;;;;;4.67;2.20;;;30.20;98.70;;;;;;4987490;28;20460;-70
2022/07/31 15:12:59;;;;;;;2.57;2.00;;;30.20;97.20;;;;;;4988123;28;20798;-68
2022/07/31 15:15:25;;;;;;;3.33;1.63;;;30.20;97.60;;;;;;4987729;28;20462;-70
2022/07/31 15:17:52;;;;;;;3.07;1.90;;;30.30;97.40;;;;;;4988081;28;20543;-70
2022/07/31 15:20:19;;;;;;;2.33;2.03;;;30.30;96.90;;;;;;4987886;28;20459;-69
2022/07/31 15:22:46;;;;;;;5.93;2.17;;;30.30;97.00;;;;;;4987873;28;20483;-69
2022/07/31 15:25:13;;;;;;;2.43;2.03;;;30.30;97.50;;;;;;4987567;28;20487;-68
2022/07/31 15:27:41;;;;;;;3.87;2.20;;;30.30;97.10;;;;;;4987390;28;20466;-68
2022/07/31 15:30:09;;;;;;;5.53;2.03;;;30.30;97.00;;;;;;4987456;28;20971;-67
2022/07/31 15:32:38;;;;;;;3.47;2.20;;;30.20;96.60;;;;;;4986075;28;20480;-69
2022/07/31 15:35:06;;;;;;;4.77;2.00;;;30.20;98.10;;;;;;4986483;28;20456;-69
2022/07/31 15:37:34;;;;;;;3.07;2.40;;;30.20;97.00;;;;;;4986488;28;21039;-69
2022/07/31 15:40:03;;;;;;;7.20;4.10;;;30.20;96.60;;;;;;4986664;28;20503;-72
2022/07/31 15:42:30;;;;;;;4.23;1.87;;;30.20;97.40;;;;;;4986763;28;20479;-68
2022/07/31 15:44:59;;;;;;;6.57;2.53;;;30.20;96.90;;;;;;4985603;28;20471;-73
2022/07/31 15:47:25;;;;;;;4.93;2.50;;;30.20;96.00;;;;;;4986725;28;20506;-67
2022/07/31 15:49:52;;;;;;;4.80;1.97;;;30.10;96.00;;;;;;4986300;28;20466;-69
2022/07/31 15:52:19;;;;;;;3.90;2.13;;;30.10;95.70;;;;;;4986248;28;20506;-71
2022/07/31 15:54:46;;;;;;;4.37;2.00;;;30.10;95.90;;;;;;4985635;28;20474;-67
2022/07/31 15:57:13;;;;;;;3.63;2.00;;;30.10;95.70;;;;;;4986738;28;20465;-69
2022/07/31 15:59:40;;;;;;;3.00;2.10;;;30.00;95.90;;;;;;4986289;28;20502;-67
2022/07/31 16:02:08;;;;;;;3.40;2.10;;;30.00;95.80;;;;;;4985625;28;21006;-68
2022/07/31 16:04:37;;;;;;;2.60;1.83;;;30.00;96.00;;;;;;4985440;28;20463;-69
2022/07/31 16:07:04;;;;;;;4.30;2.30;;;30.00;96.20;;;;;;4985487;28;20550;-69
2022/07/31 16:09:30;;;;;;;6.73;2.20;;;30.00;96.90;;;;;;4986494;28;20460;-67
2022/07/31 16:11:57;;;;;;;2.93;2.13;;;30.00;96.30;;;;;;4985982;28;20871;-69
2022/07/31 16:14:24;;;;;;;2.60;1.80;;;30.10;97.30;;;;;;4985229;28;20967;-69
2022/07/31 16:16:51;;;;;;;3.87;2.20;;;30.10;96.30;;;;;;4985725;28;20463;-66
2022/07/31 16:19:19;;;;;;;2.43;1.90;;;30.10;96.50;;;;;;4986039;28;20517;-69
2022/07/31 16:21:46;;;;;;;3.80;1.97;;;30.20;95.70;;;;;;4985912;28;21310;-68
2022/07/31 16:24:13;;;;;;;3.93;1.93;;;30.20;95.70;;;;;;4984972;28;21003;-67
2022/07/31 16:26:40;;;;;;;2.10;1.90;;;30.30;96.40;;;;;;4986090;28;20464;-66
2022/07/31 16:29:07;;;;;;;2.30;1.77;;;30.30;95.10;;;;;;4985911;28;20967;-68
2022/07/31 16:31:33;;;;;;;3.10;1.90;;;30.40;95.60;;;;;;4985246;28;21007;-68
2022/07/31 16:34:00;;;;;;;2.90;1.80;;;30.30;94.60;;;;;;4984999;28;20474;-66
2022/07/31 16:36:28;;;;;;;3.43;1.70;;;30.30;94.80;;;;;;4985559;28;20464;-67
2022/07/31 16:38:55;;;;;;;4.50;1.73;;;30.20;94.20;;;;;;4985801;28;20498;-68
2022/07/31 16:41:22;;;;;;;3.37;1.70;;;30.20;94.10;;;;;;4985417;28;20487;-68
2022/07/31 16:43:49;;;;;;;3.27;1.73;;;30.10;94.00;;;;;;4985386;28;20482;-70
2022/07/31 16:46:16;;;;;;;6.43;1.90;;;30.20;94.30;;;;;;4984937;28;20992;-69
2022/07/31 16:48:43;;;;;;;4.97;2.00;;;30.10;94.00;;;;;;4985356;28;21039;-70
2022/07/31 16:51:10;;;;;;;2.97;2.20;;;30.10;94.20;;;;;;4985661;28;20480;-70